TAF Text Data
IDs:
Format:
Raw Decoded Include METAR

Data at: 0808 UTC 21 Sep 2018

KABQ 210752Z 00000KT 10SM CLR 17/12 A3013 RMK AO2 SLP134 T01720117

KABQ 210543Z 2106/2206 11006KT P6SM SKC
  FM211100 05007KT P6SM FEW050
  FM211400 09015G25KT P6SM FEW050
  FM212100 09023G35KT P6SM SCT050 SCT080
  FM220400 09015G25KT P6SM SCT050